sensor_id;sensor_type;location;lat;lon;timestamp;P1;durP1;ratioP1;P2;durP2;ratioP2
39102;SDS011;24847;48.218;16.414;2022-08-11T00:04:33;2.10;;;1.80;;
39102;SDS011;24847;48.218;16.414;2022-08-11T00:09:37;3.00;;;1.92;;
39102;SDS011;24847;48.218;16.414;2022-08-11T00:14:40;2.03;;;1.73;;
39102;SDS011;24847;48.218;16.414;2022-08-11T00:19:46;2.08;;;1.80;;
39102;SDS011;24847;48.218;16.414;2022-08-11T00:24:50;3.30;;;1.65;;
39102;SDS011;24847;48.218;16.414;2022-08-11T00:29:54;2.75;;;1.80;;
39102;SDS011;24847;48.218;16.414;2022-08-11T00:34:58;2.25;;;1.95;;
39102;SDS011;24847;48.218;16.414;2022-08-11T00:40:02;2.13;;;1.92;;
39102;SDS011;24847;48.218;16.414;2022-08-11T00:45:10;2.00;;;1.80;;
39102;SDS011;24847;48.218;16.414;2022-08-11T00:50:26;3.63;;;1.73;;
39102;SDS011;24847;48.218;16.414;2022-08-11T01:01:58;1.92;;;1.70;;
39102;SDS011;24847;48.218;16.414;2022-08-11T01:13:31;1.92;;;1.60;;
39102;SDS011;24847;48.218;16.414;2022-08-11T01:31:14;2.15;;;1.92;;
39102;SDS011;24847;48.218;16.414;2022-08-11T01:36:59;2.75;;;1.80;;
39102;SDS011;24847;48.218;16.414;2022-08-11T01:42:30;2.03;;;1.75;;
39102;SDS011;24847;48.218;16.414;2022-08-11T01:48:38;2.10;;;1.90;;
39102;SDS011;24847;48.218;16.414;2022-08-11T01:53:50;2.33;;;1.67;;
39102;SDS011;24847;48.218;16.414;2022-08-11T01:59:02;3.28;;;1.98;;
39102;SDS011;24847;48.218;16.414;2022-08-11T02:04:17;2.20;;;2.00;;
39102;SDS011;24847;48.218;16.414;2022-08-11T02:09:40;2.05;;;1.77;;
39102;SDS011;24847;48.218;16.414;2022-08-11T02:15:26;2.85;;;1.75;;
39102;SDS011;24847;48.218;16.414;2022-08-11T02:20:40;4.88;;;2.30;;
39102;SDS011;24847;48.218;16.414;2022-08-11T02:26:09;2.65;;;2.00;;
39102;SDS011;24847;48.218;16.414;2022-08-11T02:31:23;2.55;;;2.00;;
39102;SDS011;24847;48.218;16.414;2022-08-11T02:36:54;2.65;;;2.00;;
39102;SDS011;24847;48.218;16.414;2022-08-11T02:42:06;2.30;;;1.73;;
39102;SDS011;24847;48.218;16.414;2022-08-11T02:47:28;1.67;;;1.58;;
39102;SDS011;24847;48.218;16.414;2022-08-11T02:53:12;2.13;;;1.52;;
39102;SDS011;24847;48.218;16.414;2022-08-11T02:58:29;4.67;;;1.97;;
39102;SDS011;24847;48.218;16.414;2022-08-11T03:03:43;3.15;;;2.10;;
39102;SDS011;24847;48.218;16.414;2022-08-11T03:08:55;3.05;;;2.00;;
39102;SDS011;24847;48.218;16.414;2022-08-11T03:14:11;2.42;;;2.10;;
39102;SDS011;24847;48.218;16.414;2022-08-11T03:19:41;2.00;;;1.80;;
39102;SDS011;24847;48.218;16.414;2022-08-11T03:24:57;2.88;;;2.17;;
39102;SDS011;24847;48.218;16.414;2022-08-11T03:30:06;3.13;;;2.38;;
39102;SDS011;24847;48.218;16.414;2022-08-11T03:35:15;2.78;;;2.28;;
39102;SDS011;24847;48.218;16.414;2022-08-11T03:40:38;2.92;;;1.85;;
39102;SDS011;24847;48.218;16.414;2022-08-11T03:51:17;3.03;;;1.85;;
39102;SDS011;24847;48.218;16.414;2022-08-11T03:56:36;2.20;;;2.00;;
39102;SDS011;24847;48.218;16.414;2022-08-11T04:02:28;2.97;;;2.00;;
39102;SDS011;24847;48.218;16.414;2022-08-11T04:08:04;6.45;;;2.47;;
39102;SDS011;24847;48.218;16.414;2022-08-11T04:13:48;3.40;;;2.17;;
39102;SDS011;24847;48.218;16.414;2022-08-11T04:19:50;2.78;;;2.47;;
39102;SDS011;24847;48.218;16.414;2022-08-11T04:31:07;2.63;;;2.03;;
39102;SDS011;24847;48.218;16.414;2022-08-11T04:36:44;3.17;;;2.17;;
39102;SDS011;24847;48.218;16.414;2022-08-11T04:42:39;2.28;;;2.08;;
39102;SDS011;24847;48.218;16.414;2022-08-11T04:48:28;2.35;;;1.90;;
39102;SDS011;24847;48.218;16.414;2022-08-11T04:54:17;2.33;;;1.95;;
39102;SDS011;24847;48.218;16.414;2022-08-11T04:59:52;4.78;;;1.77;;
39102;SDS011;24847;48.218;16.414;2022-08-11T05:05:27;2.85;;;2.35;;
39102;SDS011;24847;48.218;16.414;2022-08-11T05:10:57;3.58;;;2.10;;
39102;SDS011;24847;48.218;16.414;2022-08-11T05:16:12;2.28;;;2.03;;
39102;SDS011;24847;48.218;16.414;2022-08-11T05:21:35;3.90;;;2.13;;
39102;SDS011;24847;48.218;16.414;2022-08-11T05:26:57;2.75;;;2.20;;
39102;SDS011;24847;48.218;16.414;2022-08-11T05:32:21;2.88;;;2.33;;
39102;SDS011;24847;48.218;16.414;2022-08-11T05:37:42;2.75;;;2.10;;
39102;SDS011;24847;48.218;16.414;2022-08-11T05:43:07;2.90;;;2.10;;
39102;SDS011;24847;48.218;16.414;2022-08-11T05:48:32;2.20;;;1.67;;
39102;SDS011;24847;48.218;16.414;2022-08-11T05:53:53;2.20;;;2.00;;
39102;SDS011;24847;48.218;16.414;2022-08-11T05:59:17;3.90;;;2.08;;
39102;SDS011;24847;48.218;16.414;2022-08-11T06:04:21;2.80;;;2.33;;
39102;SDS011;24847;48.218;16.414;2022-08-11T06:09:27;5.97;;;1.92;;
39102;SDS011;24847;48.218;16.414;2022-08-11T06:14:40;3.45;;;2.20;;
39102;SDS011;24847;48.218;16.414;2022-08-11T06:19:45;3.92;;;2.10;;
39102;SDS011;24847;48.218;16.414;2022-08-11T06:25:00;4.07;;;2.75;;
39102;SDS011;24847;48.218;16.414;2022-08-11T06:30:06;2.20;;;2.00;;
39102;SDS011;24847;48.218;16.414;2022-08-11T06:35:16;4.20;;;1.70;;
39102;SDS011;24847;48.218;16.414;2022-08-11T06:40:25;2.00;;;1.80;;
39102;SDS011;24847;48.218;16.414;2022-08-11T06:45:40;2.97;;;1.83;;
39102;SDS011;24847;48.218;16.414;2022-08-11T06:50:56;2.80;;;2.20;;
39102;SDS011;24847;48.218;16.414;2022-08-11T06:56:12;3.80;;;1.80;;
39102;SDS011;24847;48.218;16.414;2022-08-11T07:01:39;1.67;;;1.58;;
39102;SDS011;24847;48.218;16.414;2022-08-11T07:06:51;2.50;;;1.60;;
39102;SDS011;24847;48.218;16.414;2022-08-11T07:12:36;2.05;;;1.83;;
39102;SDS011;24847;48.218;16.414;2022-08-11T07:18:01;3.67;;;1.67;;
39102;SDS011;24847;48.218;16.414;2022-08-11T07:23:24;1.77;;;1.67;;
39102;SDS011;24847;48.218;16.414;2022-08-11T07:28:47;1.73;;;1.63;;
39102;SDS011;24847;48.218;16.414;2022-08-11T07:34:01;2.17;;;1.80;;
39102;SDS011;24847;48.218;16.414;2022-08-11T07:39:21;1.77;;;1.50;;
39102;SDS011;24847;48.218;16.414;2022-08-11T07:44:27;2.37;;;1.40;;
39102;SDS011;24847;48.218;16.414;2022-08-11T07:49:33;1.95;;;1.30;;
39102;SDS011;24847;48.218;16.414;2022-08-11T07:54:55;2.15;;;1.48;;
39102;SDS011;24847;48.218;16.414;2022-08-11T08:00:00;2.95;;;2.03;;
39102;SDS011;24847;48.218;16.414;2022-08-11T08:05:22;2.08;;;1.50;;
39102;SDS011;24847;48.218;16.414;2022-08-11T08:10:42;2.88;;;1.45;;
39102;SDS011;24847;48.218;16.414;2022-08-11T08:16:03;2.95;;;1.70;;
39102;SDS011;24847;48.218;16.414;2022-08-11T08:21:24;1.67;;;1.58;;
39102;SDS011;24847;48.218;16.414;2022-08-11T08:26:27;4.25;;;1.80;;
39102;SDS011;24847;48.218;16.414;2022-08-11T08:31:47;2.65;;;1.50;;
39102;SDS011;24847;48.218;16.414;2022-08-11T08:36:54;3.15;;;1.63;;
39102;SDS011;24847;48.218;16.414;2022-08-11T08:41:56;1.98;;;1.77;;
39102;SDS011;24847;48.218;16.414;2022-08-11T08:47:03;3.28;;;1.50;;
39102;SDS011;24847;48.218;16.414;2022-08-11T08:52:08;1.95;;;1.40;;
39102;SDS011;24847;48.218;16.414;2022-08-11T08:57:15;1.50;;;1.30;;
39102;SDS011;24847;48.218;16.414;2022-08-11T09:02:22;1.20;;;1.10;;
39102;SDS011;24847;48.218;16.414;2022-08-11T09:07:27;2.80;;;1.13;;
39102;SDS011;24847;48.218;16.414;2022-08-11T09:12:30;1.65;;;1.17;;
39102;SDS011;24847;48.218;16.414;2022-08-11T09:17:35;1.42;;;1.20;;
39102;SDS011;24847;48.218;16.414;2022-08-11T09:22:43;1.65;;;1.20;;
39102;SDS011;24847;48.218;16.414;2022-08-11T09:28:08;1.27;;;1.08;;
39102;SDS011;24847;48.218;16.414;2022-08-11T09:33:13;1.65;;;1.10;;
39102;SDS011;24847;48.218;16.414;2022-08-11T09:38:18;2.00;;;1.10;;
39102;SDS011;24847;48.218;16.414;2022-08-11T09:43:42;1.67;;;1.00;;
39102;SDS011;24847;48.218;16.414;2022-08-11T09:49:03;2.70;;;1.17;;
39102;SDS011;24847;48.218;16.414;2022-08-11T09:54:07;3.20;;;1.40;;
39102;SDS011;24847;48.218;16.414;2022-08-11T09:59:10;1.35;;;1.10;;
39102;SDS011;24847;48.218;16.414;2022-08-11T10:04:13;0.90;;;0.90;;
39102;SDS011;24847;48.218;16.414;2022-08-11T10:09:23;1.65;;;1.13;;
39102;SDS011;24847;48.218;16.414;2022-08-11T10:14:26;1.52;;;1.10;;
39102;SDS011;24847;48.218;16.414;2022-08-11T10:19:53;1.63;;;0.70;;
39102;SDS011;24847;48.218;16.414;2022-08-11T10:24:59;1.60;;;0.90;;
39102;SDS011;24847;48.218;16.414;2022-08-11T10:30:20;1.20;;;0.93;;
39102;SDS011;24847;48.218;16.414;2022-08-11T10:35:42;1.45;;;1.05;;
39102;SDS011;24847;48.218;16.414;2022-08-11T10:40:47;1.23;;;0.90;;
39102;SDS011;24847;48.218;16.414;2022-08-11T10:46:11;1.30;;;0.85;;
39102;SDS011;24847;48.218;16.414;2022-08-11T10:51:31;1.40;;;0.90;;
39102;SDS011;24847;48.218;16.414;2022-08-11T10:56:52;2.25;;;0.80;;
39102;SDS011;24847;48.218;16.414;2022-08-11T11:02:13;1.05;;;0.88;;
39102;SDS011;24847;48.218;16.414;2022-08-11T11:07:19;0.93;;;0.85;;
39102;SDS011;24847;48.218;16.414;2022-08-11T11:12:39;0.75;;;0.75;;
39102;SDS011;24847;48.218;16.414;2022-08-11T11:18:03;1.08;;;0.98;;
39102;SDS011;24847;48.218;16.414;2022-08-11T11:23:13;0.88;;;0.80;;
39102;SDS011;24847;48.218;16.414;2022-08-11T11:28:31;1.30;;;1.20;;
39102;SDS011;24847;48.218;16.414;2022-08-11T11:34:01;0.90;;;0.88;;
39102;SDS011;24847;48.218;16.414;2022-08-11T11:39:18;2.42;;;1.00;;
39102;SDS011;24847;48.218;16.414;2022-08-11T11:44:25;3.75;;;0.93;;
39102;SDS011;24847;48.218;16.414;2022-08-11T11:49:29;1.20;;;0.82;;
39102;SDS011;24847;48.218;16.414;2022-08-11T11:54:32;1.58;;;1.00;;
39102;SDS011;24847;48.218;16.414;2022-08-11T11:59:38;2.05;;;0.95;;
39102;SDS011;24847;48.218;16.414;2022-08-11T12:04:57;1.27;;;0.88;;
39102;SDS011;24847;48.218;16.414;2022-08-11T12:10:01;1.20;;;0.90;;
39102;SDS011;24847;48.218;16.414;2022-08-11T12:15:06;3.78;;;0.95;;
39102;SDS011;24847;48.218;16.414;2022-08-11T12:20:10;4.55;;;0.80;;
39102;SDS011;24847;48.218;16.414;2022-08-11T12:25:15;2.47;;;0.90;;
39102;SDS011;24847;48.218;16.414;2022-08-11T12:30:37;1.13;;;0.70;;
39102;SDS011;24847;48.218;16.414;2022-08-11T12:35:40;1.10;;;1.00;;
39102;SDS011;24847;48.218;16.414;2022-08-11T12:40:43;1.00;;;0.90;;
39102;SDS011;24847;48.218;16.414;2022-08-11T12:46:04;1.33;;;0.80;;
39102;SDS011;24847;48.218;16.414;2022-08-11T12:51:09;1.13;;;0.80;;
39102;SDS011;24847;48.218;16.414;2022-08-11T12:56:31;1.23;;;0.80;;
39102;SDS011;24847;48.218;16.414;2022-08-11T13:01:59;1.10;;;1.00;;
39102;SDS011;24847;48.218;16.414;2022-08-11T13:07:19;1.70;;;0.80;;
39102;SDS011;24847;48.218;16.414;2022-08-11T13:12:22;2.05;;;0.80;;
39102;SDS011;24847;48.218;16.414;2022-08-11T13:17:44;2.92;;;0.80;;
39102;SDS011;24847;48.218;16.414;2022-08-11T13:22:48;1.30;;;0.93;;
39102;SDS011;24847;48.218;16.414;2022-08-11T13:27:55;1.80;;;0.90;;
39102;SDS011;24847;48.218;16.414;2022-08-11T13:33:01;1.02;;;0.90;;
39102;SDS011;24847;48.218;16.414;2022-08-11T13:38:05;1.92;;;1.40;;
39102;SDS011;24847;48.218;16.414;2022-08-11T13:43:13;1.60;;;1.10;;
39102;SDS011;24847;48.218;16.414;2022-08-11T13:48:18;1.63;;;1.10;;
39102;SDS011;24847;48.218;16.414;2022-08-11T13:53:21;1.20;;;1.10;;
39102;SDS011;24847;48.218;16.414;2022-08-11T13:58:26;1.17;;;1.00;;
39102;SDS011;24847;48.218;16.414;2022-08-11T14:03:30;2.03;;;1.00;;
39102;SDS011;24847;48.218;16.414;2022-08-11T14:08:34;2.97;;;1.02;;
39102;SDS011;24847;48.218;16.414;2022-08-11T14:13:39;2.42;;;1.15;;
39102;SDS011;24847;48.218;16.414;2022-08-11T14:18:46;1.10;;;1.00;;
39102;SDS011;24847;48.218;16.414;2022-08-11T14:23:53;1.98;;;1.20;;
39102;SDS011;24847;48.218;16.414;2022-08-11T14:28:58;2.65;;;1.50;;
39102;SDS011;24847;48.218;16.414;2022-08-11T14:34:05;2.50;;;1.17;;
39102;SDS011;24847;48.218;16.414;2022-08-11T14:39:11;1.75;;;1.30;;
39102;SDS011;24847;48.218;16.414;2022-08-11T14:44:17;2.60;;;1.70;;
39102;SDS011;24847;48.218;16.414;2022-08-11T14:49:39;1.42;;;1.10;;
39102;SDS011;24847;48.218;16.414;2022-08-11T14:54:45;1.75;;;1.50;;
39102;SDS011;24847;48.218;16.414;2022-08-11T15:00:08;2.20;;;1.20;;
39102;SDS011;24847;48.218;16.414;2022-08-11T15:05:18;3.45;;;1.60;;
39102;SDS011;24847;48.218;16.414;2022-08-11T15:10:22;2.47;;;1.38;;
39102;SDS011;24847;48.218;16.414;2022-08-11T15:15:25;3.58;;;1.50;;
39102;SDS011;24847;48.218;16.414;2022-08-11T15:20:46;2.03;;;1.30;;
39102;SDS011;24847;48.218;16.414;2022-08-11T15:26:07;1.52;;;1.27;;
39102;SDS011;24847;48.218;16.414;2022-08-11T15:31:14;2.60;;;1.30;;
39102;SDS011;24847;48.218;16.414;2022-08-11T15:36:38;1.48;;;1.30;;
39102;SDS011;24847;48.218;16.414;2022-08-11T15:42:01;1.50;;;1.10;;
39102;SDS011;24847;48.218;16.414;2022-08-11T15:47:26;1.77;;;1.27;;
39102;SDS011;24847;48.218;16.414;2022-08-11T15:52:42;1.20;;;1.08;;
39102;SDS011;24847;48.218;16.414;2022-08-11T15:57:52;1.92;;;1.52;;
39102;SDS011;24847;48.218;16.414;2022-08-11T16:03:13;2.47;;;1.83;;
39102;SDS011;24847;48.218;16.414;2022-08-11T16:08:38;1.60;;;1.30;;
39102;SDS011;24847;48.218;16.414;2022-08-11T16:13:42;1.70;;;1.33;;
39102;SDS011;24847;48.218;16.414;2022-08-11T16:19:02;1.30;;;1.10;;
39102;SDS011;24847;48.218;16.414;2022-08-11T16:24:10;2.47;;;1.23;;
39102;SDS011;24847;48.218;16.414;2022-08-11T16:29:15;1.83;;;1.20;;
39102;SDS011;24847;48.218;16.414;2022-08-11T16:34:21;1.35;;;1.23;;
39102;SDS011;24847;48.218;16.414;2022-08-11T16:39:39;3.05;;;1.23;;
39102;SDS011;24847;48.218;16.414;2022-08-11T16:44:42;2.50;;;1.30;;
39102;SDS011;24847;48.218;16.414;2022-08-11T16:50:02;1.67;;;1.50;;
39102;SDS011;24847;48.218;16.414;2022-08-11T16:55:07;3.58;;;3.03;;
39102;SDS011;24847;48.218;16.414;2022-08-11T17:00:11;2.83;;;1.80;;
39102;SDS011;24847;48.218;16.414;2022-08-11T17:05:20;2.22;;;1.48;;
39102;SDS011;24847;48.218;16.414;2022-08-11T17:10:52;1.40;;;1.00;;
39102;SDS011;24847;48.218;16.414;2022-08-11T17:16:17;5.78;;;4.78;;
39102;SDS011;24847;48.218;16.414;2022-08-11T17:21:25;2.70;;;1.80;;
39102;SDS011;24847;48.218;16.414;2022-08-11T17:26:32;2.35;;;1.30;;
39102;SDS011;24847;48.218;16.414;2022-08-11T17:31:58;1.20;;;1.10;;
39102;SDS011;24847;48.218;16.414;2022-08-11T17:37:20;1.48;;;0.80;;
39102;SDS011;24847;48.218;16.414;2022-08-11T17:42:25;2.25;;;1.35;;
39102;SDS011;24847;48.218;16.414;2022-08-11T17:47:47;2.55;;;1.58;;
39102;SDS011;24847;48.218;16.414;2022-08-11T17:53:08;1.88;;;1.42;;
39102;SDS011;24847;48.218;16.414;2022-08-11T17:58:32;2.17;;;1.00;;
39102;SDS011;24847;48.218;16.414;2022-08-11T18:03:53;4.05;;;1.00;;
39102;SDS011;24847;48.218;16.414;2022-08-11T18:08:57;1.77;;;0.85;;
39102;SDS011;24847;48.218;16.414;2022-08-11T18:14:20;3.20;;;1.05;;
39102;SDS011;24847;48.218;16.414;2022-08-11T18:19:45;2.10;;;1.25;;
39102;SDS011;24847;48.218;16.414;2022-08-11T18:25:06;3.30;;;1.48;;
39102;SDS011;24847;48.218;16.414;2022-08-11T18:30:32;1.83;;;1.38;;
39102;SDS011;24847;48.218;16.414;2022-08-11T18:35:57;1.65;;;1.33;;
39102;SDS011;24847;48.218;16.414;2022-08-11T18:41:18;1.98;;;1.42;;
39102;SDS011;24847;48.218;16.414;2022-08-11T18:46:40;1.45;;;1.00;;
39102;SDS011;24847;48.218;16.414;2022-08-11T18:52:03;2.03;;;1.48;;
39102;SDS011;24847;48.218;16.414;2022-08-11T18:57:23;2.08;;;1.45;;
39102;SDS011;24847;48.218;16.414;2022-08-11T19:02:44;1.58;;;1.40;;
39102;SDS011;24847;48.218;16.414;2022-08-11T19:08:05;3.70;;;1.60;;
39102;SDS011;24847;48.218;16.414;2022-08-11T19:13:27;1.85;;;1.30;;
39102;SDS011;24847;48.218;16.414;2022-08-11T19:18:52;4.50;;;1.30;;
39102;SDS011;24847;48.218;16.414;2022-08-11T19:24:15;2.38;;;1.55;;
39102;SDS011;24847;48.218;16.414;2022-08-11T19:29:36;2.83;;;1.60;;
39102;SDS011;24847;48.218;16.414;2022-08-11T19:35:09;1.50;;;1.27;;
39102;SDS011;24847;48.218;16.414;2022-08-11T19:40:30;2.65;;;1.60;;
39102;SDS011;24847;48.218;16.414;2022-08-11T19:45:52;1.77;;;1.17;;
39102;SDS011;24847;48.218;16.414;2022-08-11T19:51:16;2.95;;;1.40;;
39102;SDS011;24847;48.218;16.414;2022-08-11T19:56:38;1.90;;;1.30;;
39102;SDS011;24847;48.218;16.414;2022-08-11T20:01:59;1.73;;;1.05;;
39102;SDS011;24847;48.218;16.414;2022-08-11T20:07:20;1.65;;;1.25;;
39102;SDS011;24847;48.218;16.414;2022-08-11T20:12:41;1.80;;;1.17;;
39102;SDS011;24847;48.218;16.414;2022-08-11T20:18:03;3.30;;;1.20;;
39102;SDS011;24847;48.218;16.414;2022-08-11T20:23:25;2.00;;;1.20;;
39102;SDS011;24847;48.218;16.414;2022-08-11T20:28:47;2.35;;;1.20;;
39102;SDS011;24847;48.218;16.414;2022-08-11T20:34:08;1.55;;;1.10;;
39102;SDS011;24847;48.218;16.414;2022-08-11T20:39:35;2.38;;;1.10;;
39102;SDS011;24847;48.218;16.414;2022-08-11T20:44:56;2.05;;;0.98;;
39102;SDS011;24847;48.218;16.414;2022-08-11T20:50:18;1.35;;;0.90;;
39102;SDS011;24847;48.218;16.414;2022-08-11T20:55:41;1.88;;;1.05;;
39102;SDS011;24847;48.218;16.414;2022-08-11T21:01:02;1.60;;;0.93;;
39102;SDS011;24847;48.218;16.414;2022-08-11T21:06:22;1.55;;;1.20;;
39102;SDS011;24847;48.218;16.414;2022-08-11T21:11:45;1.10;;;1.00;;
39102;SDS011;24847;48.218;16.414;2022-08-11T21:17:07;1.00;;;0.90;;
39102;SDS011;24847;48.218;16.414;2022-08-11T21:22:29;3.20;;;2.83;;
39102;SDS011;24847;48.218;16.414;2022-08-11T21:27:56;2.17;;;1.17;;
39102;SDS011;24847;48.218;16.414;2022-08-11T21:33:21;1.60;;;1.08;;
39102;SDS011;24847;48.218;16.414;2022-08-11T21:38:41;2.88;;;2.63;;
39102;SDS011;24847;48.218;16.414;2022-08-11T21:44:04;1.85;;;1.20;;
39102;SDS011;24847;48.218;16.414;2022-08-11T21:49:25;1.15;;;1.05;;
39102;SDS011;24847;48.218;16.414;2022-08-11T21:54:48;1.30;;;0.90;;
39102;SDS011;24847;48.218;16.414;2022-08-11T22:00:11;1.08;;;0.90;;
39102;SDS011;24847;48.218;16.414;2022-08-11T22:05:32;1.35;;;0.90;;
39102;SDS011;24847;48.218;16.414;2022-08-11T22:10:53;3.40;;;1.00;;
39102;SDS011;24847;48.218;16.414;2022-08-11T22:16:14;1.75;;;1.23;;
39102;SDS011;24847;48.218;16.414;2022-08-11T22:21:34;1.42;;;1.13;;
39102;SDS011;24847;48.218;16.414;2022-08-11T22:26:54;1.50;;;1.20;;
39102;SDS011;24847;48.218;16.414;2022-08-11T22:32:15;1.33;;;1.20;;
39102;SDS011;24847;48.218;16.414;2022-08-11T22:37:37;1.55;;;1.35;;
39102;SDS011;24847;48.218;16.414;2022-08-11T22:42:58;1.23;;;1.13;;
39102;SDS011;24847;48.218;16.414;2022-08-11T22:48:19;1.77;;;1.20;;
39102;SDS011;24847;48.218;16.414;2022-08-11T22:53:40;2.35;;;0.90;;
39102;SDS011;24847;48.218;16.414;2022-08-11T22:59:01;1.92;;;1.30;;
39102;SDS011;24847;48.218;16.414;2022-08-11T23:04:22;1.35;;;1.10;;
39102;SDS011;24847;48.218;16.414;2022-08-11T23:09:42;1.00;;;0.90;;
39102;SDS011;24847;48.218;16.414;2022-08-11T23:15:03;1.23;;;0.80;;
39102;SDS011;24847;48.218;16.414;2022-08-11T23:20:25;1.92;;;0.90;;
39102;SDS011;24847;48.218;16.414;2022-08-11T23:25:45;2.00;;;0.82;;
39102;SDS011;24847;48.218;16.414;2022-08-11T23:31:08;1.90;;;1.17;;
39102;SDS011;24847;48.218;16.414;2022-08-11T23:36:30;1.25;;;0.80;;
39102;SDS011;24847;48.218;16.414;2022-08-11T23:41:50;0.77;;;0.70;;
39102;SDS011;24847;48.218;16.414;2022-08-11T23:52:31;1.00;;;0.68;;
39102;SDS011;24847;48.218;16.414;2022-08-11T23:57:52;6.07;;;0.98;;
